sensor_id;sensor_type;location;lat;lon;timestamp;P1;durP1;ratioP1;P2;durP2;ratioP2
70444;SDS011;57902;49.638;11.070;2022-11-03T00:02:05;13.88;;;7.28;;
70444;SDS011;57902;49.638;11.070;2022-11-03T00:04:32;18.23;;;7.28;;
70444;SDS011;57902;49.638;11.070;2022-11-03T00:06:58;16.20;;;6.90;;
70444;SDS011;57902;49.638;11.070;2022-11-03T00:09:25;16.45;;;7.40;;
70444;SDS011;57902;49.638;11.070;2022-11-03T00:11:52;12.80;;;6.15;;
70444;SDS011;57902;49.638;11.070;2022-11-03T00:14:19;14.60;;;6.78;;
70444;SDS011;57902;49.638;11.070;2022-11-03T00:16:45;15.88;;;6.75;;
70444;SDS011;57902;49.638;11.070;2022-11-03T00:19:12;16.17;;;7.18;;
70444;SDS011;57902;49.638;11.070;2022-11-03T00:21:41;13.25;;;6.82;;
70444;SDS011;57902;49.638;11.070;2022-11-03T00:24:08;16.85;;;7.85;;
70444;SDS011;57902;49.638;11.070;2022-11-03T00:26:34;16.15;;;6.82;;
70444;SDS011;57902;49.638;11.070;2022-11-03T00:29:06;17.25;;;6.95;;
70444;SDS011;57902;49.638;11.070;2022-11-03T00:31:37;15.50;;;6.70;;
70444;SDS011;57902;49.638;11.070;2022-11-03T00:34:06;14.50;;;6.72;;
70444;SDS011;57902;49.638;11.070;2022-11-03T00:36:34;13.68;;;6.68;;
70444;SDS011;57902;49.638;11.070;2022-11-03T00:39:08;14.07;;;6.35;;
70444;SDS011;57902;49.638;11.070;2022-11-03T00:41:35;21.00;;;7.45;;
70444;SDS011;57902;49.638;11.070;2022-11-03T00:44:02;12.25;;;5.82;;
70444;SDS011;57902;49.638;11.070;2022-11-03T00:46:28;12.60;;;5.78;;
70444;SDS011;57902;49.638;11.070;2022-11-03T00:48:55;15.90;;;6.47;;
70444;SDS011;57902;49.638;11.070;2022-11-03T00:51:26;15.85;;;5.60;;
70444;SDS011;57902;49.638;11.070;2022-11-03T00:53:58;15.02;;;6.63;;
70444;SDS011;57902;49.638;11.070;2022-11-03T00:56:27;13.38;;;5.80;;
70444;SDS011;57902;49.638;11.070;2022-11-03T00:58:57;14.98;;;6.72;;
70444;SDS011;57902;49.638;11.070;2022-11-03T01:01:35;13.50;;;6.53;;
70444;SDS011;57902;49.638;11.070;2022-11-03T01:04:12;15.23;;;6.68;;
70444;SDS011;57902;49.638;11.070;2022-11-03T01:06:57;15.90;;;6.95;;
70444;SDS011;57902;49.638;11.070;2022-11-03T01:09:43;14.20;;;6.28;;
70444;SDS011;57902;49.638;11.070;2022-11-03T01:12:11;17.33;;;6.72;;
70444;SDS011;57902;49.638;11.070;2022-11-03T01:14:40;10.95;;;6.00;;
70444;SDS011;57902;49.638;11.070;2022-11-03T01:17:18;13.75;;;5.85;;
70444;SDS011;57902;49.638;11.070;2022-11-03T01:19:46;16.25;;;6.72;;
70444;SDS011;57902;49.638;11.070;2022-11-03T01:22:13;13.10;;;6.22;;
70444;SDS011;57902;49.638;11.070;2022-11-03T01:24:41;12.55;;;6.03;;
70444;SDS011;57902;49.638;11.070;2022-11-03T01:27:09;15.88;;;6.43;;
70444;SDS011;57902;49.638;11.070;2022-11-03T01:29:38;11.90;;;6.35;;
70444;SDS011;57902;49.638;11.070;2022-11-03T01:32:05;16.67;;;6.18;;
70444;SDS011;57902;49.638;11.070;2022-11-03T01:34:33;14.48;;;6.05;;
70444;SDS011;57902;49.638;11.070;2022-11-03T01:37:00;12.32;;;6.35;;
70444;SDS011;57902;49.638;11.070;2022-11-03T01:39:26;12.80;;;6.30;;
70444;SDS011;57902;49.638;11.070;2022-11-03T01:41:53;21.10;;;6.07;;
70444;SDS011;57902;49.638;11.070;2022-11-03T01:44:24;14.95;;;6.30;;
70444;SDS011;57902;49.638;11.070;2022-11-03T01:47:08;15.68;;;6.30;;
70444;SDS011;57902;49.638;11.070;2022-11-03T01:49:42;13.82;;;6.50;;
70444;SDS011;57902;49.638;11.070;2022-11-03T01:54:45;19.00;;;6.32;;
70444;SDS011;57902;49.638;11.070;2022-11-03T01:57:18;14.93;;;6.40;;
70444;SDS011;57902;49.638;11.070;2022-11-03T01:59:49;14.82;;;6.88;;
70444;SDS011;57902;49.638;11.070;2022-11-03T02:02:16;13.02;;;5.90;;
70444;SDS011;57902;49.638;11.070;2022-11-03T02:04:43;20.88;;;6.05;;
70444;SDS011;57902;49.638;11.070;2022-11-03T02:09:59;17.83;;;6.28;;
70444;SDS011;57902;49.638;11.070;2022-11-03T02:12:26;12.57;;;4.85;;
70444;SDS011;57902;49.638;11.070;2022-11-03T02:14:54;12.95;;;6.20;;
70444;SDS011;57902;49.638;11.070;2022-11-03T02:17:26;14.48;;;5.28;;
70444;SDS011;57902;49.638;11.070;2022-11-03T02:19:59;14.27;;;5.82;;
70444;SDS011;57902;49.638;11.070;2022-11-03T02:27:53;15.88;;;5.78;;
70444;SDS011;57902;49.638;11.070;2022-11-03T02:30:20;11.07;;;5.55;;
70444;SDS011;57902;49.638;11.070;2022-11-03T02:33:04;15.68;;;5.40;;
70444;SDS011;57902;49.638;11.070;2022-11-03T02:38:07;12.70;;;6.07;;
70444;SDS011;57902;49.638;11.070;2022-11-03T02:40:37;13.88;;;5.47;;
70444;SDS011;57902;49.638;11.070;2022-11-03T02:43:07;12.38;;;5.65;;
70444;SDS011;57902;49.638;11.070;2022-11-03T02:45:36;16.23;;;5.75;;
70444;SDS011;57902;49.638;11.070;2022-11-03T02:48:04;11.10;;;5.25;;
70444;SDS011;57902;49.638;11.070;2022-11-03T02:50:32;15.93;;;5.38;;
70444;SDS011;57902;49.638;11.070;2022-11-03T02:53:00;14.65;;;4.80;;
70444;SDS011;57902;49.638;11.070;2022-11-03T02:55:36;16.33;;;4.72;;
70444;SDS011;57902;49.638;11.070;2022-11-03T02:58:05;9.80;;;4.50;;
70444;SDS011;57902;49.638;11.070;2022-11-03T03:00:46;9.20;;;4.50;;
70444;SDS011;57902;49.638;11.070;2022-11-03T03:03:41;11.05;;;4.10;;
70444;SDS011;57902;49.638;11.070;2022-11-03T03:06:15;11.63;;;3.40;;
70444;SDS011;57902;49.638;11.070;2022-11-03T03:08:54;8.43;;;3.85;;
70444;SDS011;57902;49.638;11.070;2022-11-03T03:11:25;8.45;;;4.70;;
70444;SDS011;57902;49.638;11.070;2022-11-03T03:21:53;10.85;;;4.70;;
70444;SDS011;57902;49.638;11.070;2022-11-03T03:27:01;10.45;;;5.30;;
70444;SDS011;57902;49.638;11.070;2022-11-03T03:29:36;10.82;;;4.80;;
70444;SDS011;57902;49.638;11.070;2022-11-03T03:32:17;12.23;;;4.57;;
70444;SDS011;57902;49.638;11.070;2022-11-03T03:34:47;12.60;;;4.88;;
70444;SDS011;57902;49.638;11.070;2022-11-03T03:37:16;11.70;;;4.93;;
70444;SDS011;57902;49.638;11.070;2022-11-03T03:39:45;16.05;;;4.53;;
70444;SDS011;57902;49.638;11.070;2022-11-03T03:42:15;12.05;;;4.32;;
70444;SDS011;57902;49.638;11.070;2022-11-03T03:44:44;9.13;;;4.63;;
70444;SDS011;57902;49.638;11.070;2022-11-03T03:47:20;11.57;;;4.47;;
70444;SDS011;57902;49.638;11.070;2022-11-03T03:49:50;16.13;;;4.70;;
70444;SDS011;57902;49.638;11.070;2022-11-03T03:52:17;12.93;;;4.57;;
70444;SDS011;57902;49.638;11.070;2022-11-03T03:54:44;10.38;;;4.57;;
70444;SDS011;57902;49.638;11.070;2022-11-03T03:57:12;10.77;;;4.55;;
70444;SDS011;57902;49.638;11.070;2022-11-03T03:59:41;11.80;;;4.40;;
70444;SDS011;57902;49.638;11.070;2022-11-03T04:02:09;11.07;;;4.70;;
70444;SDS011;57902;49.638;11.070;2022-11-03T04:04:36;12.50;;;4.10;;
70444;SDS011;57902;49.638;11.070;2022-11-03T04:07:03;13.20;;;4.78;;
70444;SDS011;57902;49.638;11.070;2022-11-03T04:09:48;10.98;;;5.32;;
70444;SDS011;57902;49.638;11.070;2022-11-03T04:12:15;10.90;;;4.85;;
70444;SDS011;57902;49.638;11.070;2022-11-03T04:15:00;13.07;;;5.10;;
70444;SDS011;57902;49.638;11.070;2022-11-03T04:17:45;8.70;;;4.40;;
70444;SDS011;57902;49.638;11.070;2022-11-03T04:20:32;12.77;;;4.43;;
70444;SDS011;57902;49.638;11.070;2022-11-03T04:23:18;12.90;;;4.25;;
70444;SDS011;57902;49.638;11.070;2022-11-03T04:25:49;9.90;;;5.07;;
70444;SDS011;57902;49.638;11.070;2022-11-03T04:28:19;8.50;;;4.55;;
70444;SDS011;57902;49.638;11.070;2022-11-03T04:30:46;12.23;;;4.50;;
70444;SDS011;57902;49.638;11.070;2022-11-03T04:33:13;11.23;;;4.75;;
70444;SDS011;57902;49.638;11.070;2022-11-03T04:35:45;11.25;;;4.43;;
70444;SDS011;57902;49.638;11.070;2022-11-03T04:40:46;13.48;;;5.10;;
70444;SDS011;57902;49.638;11.070;2022-11-03T04:43:20;8.75;;;4.40;;
70444;SDS011;57902;49.638;11.070;2022-11-03T04:45:49;13.70;;;4.72;;
70444;SDS011;57902;49.638;11.070;2022-11-03T04:48:22;12.65;;;4.70;;
70444;SDS011;57902;49.638;11.070;2022-11-03T04:50:59;17.23;;;7.38;;
70444;SDS011;57902;49.638;11.070;2022-11-03T04:53:35;14.13;;;5.90;;
70444;SDS011;57902;49.638;11.070;2022-11-03T04:56:07;23.55;;;10.75;;
70444;SDS011;57902;49.638;11.070;2022-11-03T04:58:40;25.63;;;11.57;;
70444;SDS011;57902;49.638;11.070;2022-11-03T05:01:09;14.60;;;6.38;;
70444;SDS011;57902;49.638;11.070;2022-11-03T05:03:38;12.05;;;6.13;;
70444;SDS011;57902;49.638;11.070;2022-11-03T05:06:12;13.80;;;7.97;;
70444;SDS011;57902;49.638;11.070;2022-11-03T05:08:41;14.05;;;7.53;;
70444;SDS011;57902;49.638;11.070;2022-11-03T05:11:44;12.48;;;4.55;;
70444;SDS011;57902;49.638;11.070;2022-11-03T05:16:45;9.98;;;3.92;;
70444;SDS011;57902;49.638;11.070;2022-11-03T05:21:55;10.35;;;4.50;;
70444;SDS011;57902;49.638;11.070;2022-11-03T05:24:23;7.32;;;4.05;;
70444;SDS011;57902;49.638;11.070;2022-11-03T05:26:53;12.43;;;4.70;;
70444;SDS011;57902;49.638;11.070;2022-11-03T05:29:37;12.25;;;5.35;;
70444;SDS011;57902;49.638;11.070;2022-11-03T05:32:09;30.58;;;6.28;;
70444;SDS011;57902;49.638;11.070;2022-11-03T05:34:41;10.68;;;4.15;;
70444;SDS011;57902;49.638;11.070;2022-11-03T05:42:45;9.40;;;4.50;;
70444;SDS011;57902;49.638;11.070;2022-11-03T05:47:45;10.77;;;5.82;;
70444;SDS011;57902;49.638;11.070;2022-11-03T05:50:20;13.38;;;6.10;;
70444;SDS011;57902;49.638;11.070;2022-11-03T05:52:50;12.15;;;6.85;;
70444;SDS011;57902;49.638;11.070;2022-11-03T06:00:27;10.43;;;5.03;;
70444;SDS011;57902;49.638;11.070;2022-11-03T06:02:57;12.73;;;4.90;;
70444;SDS011;57902;49.638;11.070;2022-11-03T06:05:24;11.93;;;4.57;;
70444;SDS011;57902;49.638;11.070;2022-11-03T06:07:53;15.85;;;4.55;;
70444;SDS011;57902;49.638;11.070;2022-11-03T06:13:00;11.27;;;5.40;;
70444;SDS011;57902;49.638;11.070;2022-11-03T06:15:36;15.50;;;5.63;;
70444;SDS011;57902;49.638;11.070;2022-11-03T06:18:18;12.63;;;4.95;;
70444;SDS011;57902;49.638;11.070;2022-11-03T06:20:53;22.67;;;8.93;;
70444;SDS011;57902;49.638;11.070;2022-11-03T06:23:23;20.60;;;9.73;;
70444;SDS011;57902;49.638;11.070;2022-11-03T06:25:51;15.18;;;5.88;;
70444;SDS011;57902;49.638;11.070;2022-11-03T06:28:21;12.10;;;6.18;;
70444;SDS011;57902;49.638;11.070;2022-11-03T06:30:51;16.35;;;6.35;;
70444;SDS011;57902;49.638;11.070;2022-11-03T06:33:21;12.18;;;5.30;;
70444;SDS011;57902;49.638;11.070;2022-11-03T06:35:51;10.57;;;5.63;;
70444;SDS011;57902;49.638;11.070;2022-11-03T06:38:21;10.25;;;4.70;;
70444;SDS011;57902;49.638;11.070;2022-11-03T06:40:50;12.52;;;4.40;;
70444;SDS011;57902;49.638;11.070;2022-11-03T06:43:19;9.60;;;4.18;;
70444;SDS011;57902;49.638;11.070;2022-11-03T06:46:28;10.73;;;4.53;;
70444;SDS011;57902;49.638;11.070;2022-11-03T06:51:13;11.93;;;4.82;;
70444;SDS011;57902;49.638;11.070;2022-11-03T06:53:51;9.30;;;4.45;;
70444;SDS011;57902;49.638;11.070;2022-11-03T06:56:20;12.68;;;4.80;;
70444;SDS011;57902;49.638;11.070;2022-11-03T07:03:45;12.70;;;6.03;;
70444;SDS011;57902;49.638;11.070;2022-11-03T07:06:18;27.00;;;10.05;;
70444;SDS011;57902;49.638;11.070;2022-11-03T07:08:53;30.52;;;11.60;;
70444;SDS011;57902;49.638;11.070;2022-11-03T07:11:21;36.60;;;14.63;;
70444;SDS011;57902;49.638;11.070;2022-11-03T07:16:21;8.30;;;3.60;;
70444;SDS011;57902;49.638;11.070;2022-11-03T07:18:49;9.18;;;3.75;;
70444;SDS011;57902;49.638;11.070;2022-11-03T07:21:23;11.20;;;3.60;;
70444;SDS011;57902;49.638;11.070;2022-11-03T07:23:54;8.52;;;3.47;;
70444;SDS011;57902;49.638;11.070;2022-11-03T07:26:24;9.23;;;3.90;;
70444;SDS011;57902;49.638;11.070;2022-11-03T07:28:52;17.60;;;3.75;;
70444;SDS011;57902;49.638;11.070;2022-11-03T07:31:21;9.60;;;4.00;;
70444;SDS011;57902;49.638;11.070;2022-11-03T07:33:54;9.77;;;4.72;;
70444;SDS011;57902;49.638;11.070;2022-11-03T07:36:22;21.55;;;8.32;;
70444;SDS011;57902;49.638;11.070;2022-11-03T07:38:51;20.50;;;8.52;;
70444;SDS011;57902;49.638;11.070;2022-11-03T07:43:58;15.77;;;5.72;;
70444;SDS011;57902;49.638;11.070;2022-11-03T07:46:26;11.48;;;3.80;;
70444;SDS011;57902;49.638;11.070;2022-11-03T07:48:56;10.40;;;3.83;;
70444;SDS011;57902;49.638;11.070;2022-11-03T07:51:25;13.52;;;3.90;;
70444;SDS011;57902;49.638;11.070;2022-11-03T07:56:35;11.00;;;4.82;;
70444;SDS011;57902;49.638;11.070;2022-11-03T08:01:42;20.77;;;6.63;;
70444;SDS011;57902;49.638;11.070;2022-11-03T08:04:20;28.02;;;9.52;;
70444;SDS011;57902;49.638;11.070;2022-11-03T08:06:50;28.38;;;9.35;;
70444;SDS011;57902;49.638;11.070;2022-11-03T08:09:17;17.10;;;5.57;;
70444;SDS011;57902;49.638;11.070;2022-11-03T08:11:44;11.75;;;3.97;;
70444;SDS011;57902;49.638;11.070;2022-11-03T08:14:11;14.88;;;3.35;;
70444;SDS011;57902;49.638;11.070;2022-11-03T08:16:38;13.68;;;3.55;;
70444;SDS011;57902;49.638;11.070;2022-11-03T08:19:05;17.42;;;4.47;;
70444;SDS011;57902;49.638;11.070;2022-11-03T08:21:32;12.73;;;3.53;;
70444;SDS011;57902;49.638;11.070;2022-11-03T08:23:59;10.18;;;3.65;;
70444;SDS011;57902;49.638;11.070;2022-11-03T08:26:25;18.10;;;6.22;;
70444;SDS011;57902;49.638;11.070;2022-11-03T08:28:52;14.18;;;4.95;;
70444;SDS011;57902;49.638;11.070;2022-11-03T08:31:19;9.20;;;4.63;;
70444;SDS011;57902;49.638;11.070;2022-11-03T08:33:45;15.95;;;5.57;;
70444;SDS011;57902;49.638;11.070;2022-11-03T08:36:12;11.20;;;5.25;;
70444;SDS011;57902;49.638;11.070;2022-11-03T08:38:38;13.52;;;5.07;;
70444;SDS011;57902;49.638;11.070;2022-11-03T08:41:05;12.13;;;5.38;;
70444;SDS011;57902;49.638;11.070;2022-11-03T08:43:31;9.13;;;4.40;;
70444;SDS011;57902;49.638;11.070;2022-11-03T08:45:58;7.55;;;3.70;;
70444;SDS011;57902;49.638;11.070;2022-11-03T08:48:38;9.77;;;4.15;;
70444;SDS011;57902;49.638;11.070;2022-11-03T08:51:05;20.10;;;4.57;;
70444;SDS011;57902;49.638;11.070;2022-11-03T08:53:33;15.05;;;4.72;;
70444;SDS011;57902;49.638;11.070;2022-11-03T08:56:00;8.90;;;3.72;;
70444;SDS011;57902;49.638;11.070;2022-11-03T08:58:27;19.63;;;4.72;;
70444;SDS011;57902;49.638;11.070;2022-11-03T09:00:53;13.50;;;3.63;;
70444;SDS011;57902;49.638;11.070;2022-11-03T09:03:19;7.22;;;1.80;;
70444;SDS011;57902;49.638;11.070;2022-11-03T09:05:46;11.68;;;1.88;;
70444;SDS011;57902;49.638;11.070;2022-11-03T09:08:12;13.77;;;1.95;;
70444;SDS011;57902;49.638;11.070;2022-11-03T09:10:59;10.63;;;1.77;;
70444;SDS011;57902;49.638;11.070;2022-11-03T09:13:25;6.90;;;1.83;;
70444;SDS011;57902;49.638;11.070;2022-11-03T09:15:52;9.23;;;1.83;;
70444;SDS011;57902;49.638;11.070;2022-11-03T09:18:18;5.68;;;1.88;;
70444;SDS011;57902;49.638;11.070;2022-11-03T09:20:45;5.15;;;1.60;;
70444;SDS011;57902;49.638;11.070;2022-11-03T09:23:11;7.63;;;1.77;;
70444;SDS011;57902;49.638;11.070;2022-11-03T09:25:38;5.88;;;1.60;;
70444;SDS011;57902;49.638;11.070;2022-11-03T09:28:04;9.35;;;2.10;;
70444;SDS011;57902;49.638;11.070;2022-11-03T09:30:31;14.52;;;1.92;;
70444;SDS011;57902;49.638;11.070;2022-11-03T09:32:58;8.60;;;1.60;;
70444;SDS011;57902;49.638;11.070;2022-11-03T09:35:24;5.97;;;1.65;;
70444;SDS011;57902;49.638;11.070;2022-11-03T09:37:51;8.63;;;1.70;;
70444;SDS011;57902;49.638;11.070;2022-11-03T09:40:17;6.65;;;1.50;;
70444;SDS011;57902;49.638;11.070;2022-11-03T09:42:44;6.07;;;1.60;;
70444;SDS011;57902;49.638;11.070;2022-11-03T09:45:11;5.97;;;1.95;;
70444;SDS011;57902;49.638;11.070;2022-11-03T09:47:40;6.05;;;1.50;;
70444;SDS011;57902;49.638;11.070;2022-11-03T09:50:12;12.77;;;2.28;;
70444;SDS011;57902;49.638;11.070;2022-11-03T09:52:42;7.82;;;1.67;;
70444;SDS011;57902;49.638;11.070;2022-11-03T09:55:16;4.90;;;1.83;;
70444;SDS011;57902;49.638;11.070;2022-11-03T09:57:46;6.85;;;1.70;;
70444;SDS011;57902;49.638;11.070;2022-11-03T10:00:17;4.70;;;1.80;;
70444;SDS011;57902;49.638;11.070;2022-11-03T10:02:46;6.50;;;1.65;;
70444;SDS011;57902;49.638;11.070;2022-11-03T10:05:18;6.32;;;1.85;;
70444;SDS011;57902;49.638;11.070;2022-11-03T10:07:58;8.63;;;1.90;;
70444;SDS011;57902;49.638;11.070;2022-11-03T10:10:28;5.80;;;1.80;;
70444;SDS011;57902;49.638;11.070;2022-11-03T10:12:55;6.85;;;2.38;;
70444;SDS011;57902;49.638;11.070;2022-11-03T10:15:22;3.53;;;1.40;;
70444;SDS011;57902;49.638;11.070;2022-11-03T10:17:50;7.05;;;1.80;;
70444;SDS011;57902;49.638;11.070;2022-11-03T10:20:21;4.63;;;1.63;;
70444;SDS011;57902;49.638;11.070;2022-11-03T10:22:52;6.72;;;1.42;;
70444;SDS011;57902;49.638;11.070;2022-11-03T10:25:26;10.57;;;2.05;;
70444;SDS011;57902;49.638;11.070;2022-11-03T10:33:39;6.53;;;1.95;;
70444;SDS011;57902;49.638;11.070;2022-11-03T10:38:41;5.47;;;1.80;;
70444;SDS011;57902;49.638;11.070;2022-11-03T10:41:11;8.98;;;2.00;;
70444;SDS011;57902;49.638;11.070;2022-11-03T10:44:04;6.25;;;1.70;;
70444;SDS011;57902;49.638;11.070;2022-11-03T10:46:28;8.38;;;2.08;;
70444;SDS011;57902;49.638;11.070;2022-11-03T10:49:15;8.68;;;2.08;;
70444;SDS011;57902;49.638;11.070;2022-11-03T10:51:46;7.82;;;2.00;;
70444;SDS011;57902;49.638;11.070;2022-11-03T10:54:15;7.03;;;2.38;;
70444;SDS011;57902;49.638;11.070;2022-11-03T10:56:43;8.60;;;2.40;;
70444;SDS011;57902;49.638;11.070;2022-11-03T10:59:17;7.38;;;2.10;;
70444;SDS011;57902;49.638;11.070;2022-11-03T11:01:46;11.07;;;2.40;;
70444;SDS011;57902;49.638;11.070;2022-11-03T11:04:16;6.30;;;1.88;;
70444;SDS011;57902;49.638;11.070;2022-11-03T11:06:44;5.25;;;2.42;;
70444;SDS011;57902;49.638;11.070;2022-11-03T11:09:12;6.25;;;1.75;;
70444;SDS011;57902;49.638;11.070;2022-11-03T11:16:57;7.20;;;2.17;;
70444;SDS011;57902;49.638;11.070;2022-11-03T11:19:25;7.32;;;2.15;;
70444;SDS011;57902;49.638;11.070;2022-11-03T11:30:03;14.45;;;2.58;;
70444;SDS011;57902;49.638;11.070;2022-11-03T11:35:10;7.53;;;2.13;;
70444;SDS011;57902;49.638;11.070;2022-11-03T11:37:41;9.50;;;2.03;;
70444;SDS011;57902;49.638;11.070;2022-11-03T11:43:36;14.40;;;2.42;;
70444;SDS011;57902;49.638;11.070;2022-11-03T11:48:42;7.65;;;1.90;;
70444;SDS011;57902;49.638;11.070;2022-11-03T11:51:09;4.32;;;1.60;;
70444;SDS011;57902;49.638;11.070;2022-11-03T11:53:38;10.27;;;2.38;;
70444;SDS011;57902;49.638;11.070;2022-11-03T11:56:10;5.22;;;2.00;;
70444;SDS011;57902;49.638;11.070;2022-11-03T11:58:41;6.72;;;2.25;;
70444;SDS011;57902;49.638;11.070;2022-11-03T12:01:23;9.85;;;2.45;;
70444;SDS011;57902;49.638;11.070;2022-11-03T12:03:56;6.82;;;2.08;;
70444;SDS011;57902;49.638;11.070;2022-11-03T12:06:31;9.85;;;2.80;;
70444;SDS011;57902;49.638;11.070;2022-11-03T12:12:06;7.90;;;2.33;;
70444;SDS011;57902;49.638;11.070;2022-11-03T12:14:34;8.02;;;2.55;;
70444;SDS011;57902;49.638;11.070;2022-11-03T12:19:50;6.13;;;2.25;;
70444;SDS011;57902;49.638;11.070;2022-11-03T12:24:57;7.63;;;2.05;;
70444;SDS011;57902;49.638;11.070;2022-11-03T12:29:52;7.25;;;1.88;;
70444;SDS011;57902;49.638;11.070;2022-11-03T12:32:20;14.00;;;2.50;;
70444;SDS011;57902;49.638;11.070;2022-11-03T12:34:59;6.28;;;1.95;;
70444;SDS011;57902;49.638;11.070;2022-11-03T12:37:26;6.65;;;2.10;;
70444;SDS011;57902;49.638;11.070;2022-11-03T12:39:52;10.02;;;2.33;;
70444;SDS011;57902;49.638;11.070;2022-11-03T12:42:19;13.50;;;2.40;;
70444;SDS011;57902;49.638;11.070;2022-11-03T12:44:46;12.95;;;2.53;;
70444;SDS011;57902;49.638;11.070;2022-11-03T12:47:12;8.50;;;2.00;;
70444;SDS011;57902;49.638;11.070;2022-11-03T12:49:39;7.50;;;2.08;;
70444;SDS011;57902;49.638;11.070;2022-11-03T12:52:05;4.13;;;1.60;;
70444;SDS011;57902;49.638;11.070;2022-11-03T12:54:33;8.32;;;2.53;;
70444;SDS011;57902;49.638;11.070;2022-11-03T12:57:00;6.45;;;2.10;;
70444;SDS011;57902;49.638;11.070;2022-11-03T12:59:27;9.63;;;1.98;;
70444;SDS011;57902;49.638;11.070;2022-11-03T13:01:53;10.23;;;2.35;;
70444;SDS011;57902;49.638;11.070;2022-11-03T13:04:20;7.10;;;1.90;;
70444;SDS011;57902;49.638;11.070;2022-11-03T13:06:47;7.95;;;1.88;;
70444;SDS011;57902;49.638;11.070;2022-11-03T13:09:13;6.93;;;2.20;;
70444;SDS011;57902;49.638;11.070;2022-11-03T13:11:40;7.40;;;2.20;;
70444;SDS011;57902;49.638;11.070;2022-11-03T13:14:25;8.25;;;2.15;;
70444;SDS011;57902;49.638;11.070;2022-11-03T13:16:51;5.22;;;1.80;;
70444;SDS011;57902;49.638;11.070;2022-11-03T13:19:18;6.35;;;2.00;;
70444;SDS011;57902;49.638;11.070;2022-11-03T13:21:44;11.95;;;2.47;;
70444;SDS011;57902;49.638;11.070;2022-11-03T13:24:11;8.98;;;2.22;;
70444;SDS011;57902;49.638;11.070;2022-11-03T13:26:37;6.00;;;2.10;;
70444;SDS011;57902;49.638;11.070;2022-11-03T13:29:04;6.53;;;2.15;;
70444;SDS011;57902;49.638;11.070;2022-11-03T13:31:30;6.90;;;2.40;;
70444;SDS011;57902;49.638;11.070;2022-11-03T13:33:57;6.85;;;2.60;;
70444;SDS011;57902;49.638;11.070;2022-11-03T13:36:23;7.28;;;2.00;;
70444;SDS011;57902;49.638;11.070;2022-11-03T13:38:50;24.05;;;3.30;;
70444;SDS011;57902;49.638;11.070;2022-11-03T13:41:16;7.45;;;2.40;;
70444;SDS011;57902;49.638;11.070;2022-11-03T13:43:42;7.53;;;2.13;;
70444;SDS011;57902;49.638;11.070;2022-11-03T13:46:09;7.38;;;2.40;;
70444;SDS011;57902;49.638;11.070;2022-11-03T13:48:38;7.30;;;2.60;;
70444;SDS011;57902;49.638;11.070;2022-11-03T13:51:24;9.02;;;2.55;;
70444;SDS011;57902;49.638;11.070;2022-11-03T13:53:51;9.48;;;2.67;;
70444;SDS011;57902;49.638;11.070;2022-11-03T13:56:37;6.68;;;2.20;;
70444;SDS011;57902;49.638;11.070;2022-11-03T13:59:24;10.95;;;2.20;;
70444;SDS011;57902;49.638;11.070;2022-11-03T14:01:51;7.30;;;2.63;;
70444;SDS011;57902;49.638;11.070;2022-11-03T14:04:38;6.18;;;2.40;;
70444;SDS011;57902;49.638;11.070;2022-11-03T14:07:09;8.20;;;2.58;;
70444;SDS011;57902;49.638;11.070;2022-11-03T14:09:36;10.40;;;2.88;;
70444;SDS011;57902;49.638;11.070;2022-11-03T14:12:07;8.45;;;2.33;;
70444;SDS011;57902;49.638;11.070;2022-11-03T14:14:52;8.75;;;2.80;;
70444;SDS011;57902;49.638;11.070;2022-11-03T14:17:19;11.63;;;2.42;;
70444;SDS011;57902;49.638;11.070;2022-11-03T14:19:45;9.35;;;2.63;;
70444;SDS011;57902;49.638;11.070;2022-11-03T14:22:21;11.95;;;3.08;;
70444;SDS011;57902;49.638;11.070;2022-11-03T14:24:49;10.57;;;2.58;;
70444;SDS011;57902;49.638;11.070;2022-11-03T14:27:16;8.73;;;2.90;;
70444;SDS011;57902;49.638;11.070;2022-11-03T14:29:44;7.78;;;2.50;;
70444;SDS011;57902;49.638;11.070;2022-11-03T14:32:11;14.48;;;2.63;;
70444;SDS011;57902;49.638;11.070;2022-11-03T14:34:37;10.30;;;2.60;;
70444;SDS011;57902;49.638;11.070;2022-11-03T14:37:04;11.55;;;2.47;;
70444;SDS011;57902;49.638;11.070;2022-11-03T14:39:31;11.93;;;3.08;;
70444;SDS011;57902;49.638;11.070;2022-11-03T14:41:57;9.20;;;3.00;;
70444;SDS011;57902;49.638;11.070;2022-11-03T14:44:30;8.82;;;2.80;;
70444;SDS011;57902;49.638;11.070;2022-11-03T14:47:04;12.43;;;2.80;;
70444;SDS011;57902;49.638;11.070;2022-11-03T14:49:35;8.80;;;2.78;;
70444;SDS011;57902;49.638;11.070;2022-11-03T14:52:03;12.00;;;2.80;;
70444;SDS011;57902;49.638;11.070;2022-11-03T14:54:32;9.90;;;3.03;;
70444;SDS011;57902;49.638;11.070;2022-11-03T14:56:59;8.02;;;2.80;;
70444;SDS011;57902;49.638;11.070;2022-11-03T14:59:26;6.80;;;3.05;;
70444;SDS011;57902;49.638;11.070;2022-11-03T15:01:53;7.93;;;2.75;;
70444;SDS011;57902;49.638;11.070;2022-11-03T15:04:20;9.98;;;2.83;;
70444;SDS011;57902;49.638;11.070;2022-11-03T15:06:47;9.18;;;2.88;;
70444;SDS011;57902;49.638;11.070;2022-11-03T15:09:14;11.45;;;3.17;;
70444;SDS011;57902;49.638;11.070;2022-11-03T15:11:41;8.82;;;3.05;;
70444;SDS011;57902;49.638;11.070;2022-11-03T15:14:08;10.95;;;3.17;;
70444;SDS011;57902;49.638;11.070;2022-11-03T15:16:37;9.43;;;2.95;;
70444;SDS011;57902;49.638;11.070;2022-11-03T15:19:04;15.20;;;3.30;;
70444;SDS011;57902;49.638;11.070;2022-11-03T15:21:31;13.38;;;3.53;;
70444;SDS011;57902;49.638;11.070;2022-11-03T15:23:58;11.10;;;3.03;;
70444;SDS011;57902;49.638;11.070;2022-11-03T15:26:45;10.00;;;3.00;;
70444;SDS011;57902;49.638;11.070;2022-11-03T15:29:11;10.55;;;3.65;;
70444;SDS011;57902;49.638;11.070;2022-11-03T15:31:38;7.85;;;3.50;;
70444;SDS011;57902;49.638;11.070;2022-11-03T15:34:12;12.90;;;3.28;;
70444;SDS011;57902;49.638;11.070;2022-11-03T15:36:39;12.43;;;4.30;;
70444;SDS011;57902;49.638;11.070;2022-11-03T15:39:05;29.52;;;4.35;;
70444;SDS011;57902;49.638;11.070;2022-11-03T15:41:31;66.63;;;6.53;;
70444;SDS011;57902;49.638;11.070;2022-11-03T15:43:58;11.18;;;4.18;;
70444;SDS011;57902;49.638;11.070;2022-11-03T15:46:24;10.48;;;3.45;;
70444;SDS011;57902;49.638;11.070;2022-11-03T15:48:51;8.73;;;3.33;;
70444;SDS011;57902;49.638;11.070;2022-11-03T15:51:19;10.20;;;3.00;;
70444;SDS011;57902;49.638;11.070;2022-11-03T15:53:46;8.95;;;3.00;;
70444;SDS011;57902;49.638;11.070;2022-11-03T15:56:12;9.73;;;3.63;;
70444;SDS011;57902;49.638;11.070;2022-11-03T15:58:39;9.10;;;3.35;;
70444;SDS011;57902;49.638;11.070;2022-11-03T16:01:05;7.72;;;3.78;;
70444;SDS011;57902;49.638;11.070;2022-11-03T16:03:32;10.93;;;4.20;;
70444;SDS011;57902;49.638;11.070;2022-11-03T16:05:58;13.65;;;3.80;;
70444;SDS011;57902;49.638;11.070;2022-11-03T16:08:25;9.65;;;3.60;;
70444;SDS011;57902;49.638;11.070;2022-11-03T16:10:51;8.55;;;3.67;;
70444;SDS011;57902;49.638;11.070;2022-11-03T16:13:34;11.65;;;3.42;;
70444;SDS011;57902;49.638;11.070;2022-11-03T16:16:00;8.10;;;3.90;;
70444;SDS011;57902;49.638;11.070;2022-11-03T16:18:28;11.23;;;4.60;;
70444;SDS011;57902;49.638;11.070;2022-11-03T16:20:54;13.35;;;3.85;;
70444;SDS011;57902;49.638;11.070;2022-11-03T16:23:21;11.77;;;3.60;;
70444;SDS011;57902;49.638;11.070;2022-11-03T16:25:47;10.35;;;4.50;;
70444;SDS011;57902;49.638;11.070;2022-11-03T16:28:13;9.70;;;4.10;;
70444;SDS011;57902;49.638;11.070;2022-11-03T16:30:40;10.85;;;4.00;;